Time;durP1;ratioP1;P1;durP2;ratioP2;P2;SDS_P1;SDS_P2;PMS_P1;PMS_P2;Temp;Humidity;BMP_temperature;BMP_pressure;BME280_temperature;BME280_humidity;BME280_pressure;Samples;Min_cycle;Max_cycle;Signal;HPM_P1;HPM_P2
2022/09/24 00:00:35;;;;;;;;;8.25;7.50;;;;;21.82;45.45;100784.38;4933411;28;45425;-55
2022/09/24 00:03:00;;;;;;;;;6.50;6.50;;;;;21.81;45.46;100785.31;4931158;28;45368;-55
2022/09/24 00:05:25;;;;;;;;;8.00;8.00;;;;;21.81;45.51;100793.22;4927545;28;45305;-56
2022/09/24 00:07:51;;;;;;;;;7.00;7.00;;;;;21.81;45.45;100792.38;4932464;28;46534;-56
2022/09/24 00:10:16;;;;;;;;;12.00;8.50;;;;;21.82;45.47;100794.91;4936415;28;45506;-56
2022/09/24 00:12:41;;;;;;;;;7.75;7.25;;;;;21.82;45.91;100791.44;4933016;28;45387;-56
2022/09/24 00:15:08;;;;;;;;;8.25;6.00;;;;;21.81;45.66;100792.38;4930878;28;45270;-57
2022/09/24 00:17:33;;;;;;;;;7.75;7.00;;;;;21.80;45.72;100786.25;4941101;28;45655;-54
2022/09/24 00:19:58;;;;;;;;;7.50;7.50;;;;;21.80;45.55;100783.59;4938514;28;49263;-56
2022/09/24 00:22:23;;;;;;;;;6.75;6.75;;;;;21.79;45.89;100774.00;4939735;28;45229;-58
2022/09/24 00:27:33;;;;;;;;;7.75;7.75;;;;;21.77;45.60;100776.75;4927881;28;45426;-54
2022/09/24 00:29:58;;;;;;;;;8.75;8.75;;;;;21.77;45.72;100779.38;4922677;28;45318;-54
2022/09/24 00:32:23;;;;;;;;;9.50;8.25;;;;;21.78;45.89;100774.94;4925804;28;45431;-58
2022/09/24 00:34:52;;;;;;;;;6.75;5.75;;;;;21.77;45.76;100779.38;4927889;28;45553;-51
2022/09/24 00:37:19;;;;;;;;;8.00;6.50;;;;;21.77;45.66;100776.75;4924568;28;46447;-56
2022/09/24 00:39:44;;;;;;;;;7.00;7.00;;;;;21.77;45.69;100773.28;4924600;28;45891;-52
2022/09/24 00:42:13;;;;;;;;;7.75;6.25;;;;;21.76;46.13;100769.78;4923801;28;45588;-54
2022/09/24 00:44:44;;;;;;;;;5.75;5.75;;;;;21.76;45.73;100782.13;4921413;28;45338;-57
2022/09/24 00:47:16;;;;;;;;;8.25;6.00;;;;;21.74;46.01;100782.19;4920946;28;46174;-51
2022/09/24 00:49:41;;;;;;;;;5.00;4.00;;;;;21.73;46.45;100777.03;4922826;28;45334;-52
2022/09/24 00:52:07;;;;;;;;;7.75;7.00;;;;;21.73;46.03;100769.94;4924020;28;45307;-58
2022/09/24 00:54:33;;;;;;;;;9.00;7.00;;;;;21.73;46.15;100764.66;4921121;28;45300;-52
2022/09/24 00:57:00;;;;;;;;;5.75;5.50;;;;;21.73;46.24;100774.38;4924178;28;45682;-55
2022/09/24 00:59:28;;;;;;;;;8.25;6.00;;;;;21.74;45.85;100770.81;4922856;28;46058;-54
2022/09/24 01:01:56;;;;;;;;;10.00;9.00;;;;;21.72;45.99;100768.25;4922371;28;45452;-58
2022/09/24 01:04:23;;;;;;;;;6.25;6.25;;;;;21.73;46.55;100769.13;4926576;28;45338;-57
2022/09/24 01:06:49;;;;;;;;;9.25;9.25;;;;;21.73;46.03;100769.13;4923086;28;46227;-58
2022/09/24 01:09:19;;;;;;;;;9.50;7.75;;;;;21.72;46.38;100762.13;4929988;28;45301;-57
2022/09/24 01:12:19;;;;;;;;;8.75;7.50;;;;;21.71;46.37;100761.31;4927912;28;45441;-58
2022/09/24 01:15:00;;;;;;;;;7.00;7.00;;;;;21.71;46.17;100765.72;4927642;28;45274;-56
2022/09/24 01:17:51;;;;;;;;;7.25;7.25;;;;;21.72;46.25;100756.88;4937147;28;46599;-54
2022/09/24 01:20:36;;;;;;;;;8.50;7.00;;;;;21.72;46.13;100772.69;4929868;28;45770;-57
2022/09/24 01:23:14;;;;;;;;;7.00;7.00;;;;;21.71;46.56;100769.22;4924463;28;45325;-53
2022/09/24 01:26:00;;;;;;;;;8.00;7.25;;;;;21.71;46.20;100765.72;4922794;28;45514;-54
2022/09/24 01:28:56;;;;;;;;;7.00;7.00;;;;;21.71;46.03;100756.03;4919483;28;46415;-55
2022/09/24 01:31:28;;;;;;;;;5.00;5.00;;;;;21.70;46.47;100761.38;4919717;28;45810;-55
2022/09/24 01:33:58;;;;;;;;;5.00;5.00;;;;;21.70;46.33;100761.38;4919724;28;45453;-58
2022/09/24 01:36:26;;;;;;;;;6.25;6.25;;;;;21.71;46.29;100757.81;4921759;28;45588;-53
2022/09/24 01:38:53;;;;;;;;;7.25;7.25;;;;;21.69;46.13;100757.91;4923329;28;45563;-54
2022/09/24 01:41:20;;;;;;;;;6.50;6.50;;;;;21.70;46.25;100748.19;4923325;28;45771;-57
2022/09/24 01:43:47;;;;;;;;;7.00;6.00;;;;;21.69;46.24;100750.00;4923228;28;45428;-54
2022/09/24 01:46:16;;;;;;;;;5.50;5.50;;;;;21.69;46.15;100749.13;4924921;28;45469;-57
2022/09/24 01:48:41;;;;;;;;;9.50;6.50;;;;;21.69;46.45;100746.50;4926078;28;46413;-59
2022/09/24 01:51:15;;;;;;;;;9.25;8.25;;;;;21.69;46.14;100749.13;4929289;28;45202;-55
2022/09/24 01:53:53;;;;;;;;;5.50;5.50;;;;;21.68;46.05;100742.16;4924612;28;45469;-48
2022/09/24 01:56:29;;;;;;;;;8.00;8.00;;;;;21.68;46.75;100739.53;4922172;28;45311;-55
2022/09/24 01:59:08;;;;;;;;;7.75;5.00;;;;;21.67;46.18;100730.78;4919300;28;46118;-56
2022/09/24 02:01:43;;;;;;;;;6.50;6.50;;;;;21.67;46.38;100740.47;4922646;28;45699;-57
2022/09/24 02:04:15;;;;;;;;;8.50;7.25;;;;;21.67;46.02;100733.41;4921977;28;45337;-53
2022/09/24 02:06:52;;;;;;;;;7.75;6.75;;;;;21.67;46.41;100730.78;4932455;28;44745;-51
2022/09/24 02:09:38;;;;;;;;;7.50;6.00;;;;;21.66;46.49;100725.59;4958572;28;47017;-52
2022/09/24 02:12:16;;;;;;;;;9.25;7.00;;;;;21.66;46.28;100720.34;4957911;28;45058;-54
2022/09/24 02:14:49;;;;;;;;;8.00;7.00;;;;;21.65;46.02;100716.81;4951572;28;45298;-57
2022/09/24 02:17:15;;;;;;;;;8.00;7.00;;;;;21.65;46.52;100716.81;4957572;28;44676;-57
2022/09/24 02:19:42;;;;;;;;;6.75;6.00;;;;;21.66;46.17;100712.41;4948973;28;45427;-56
2022/09/24 02:22:11;;;;;;;;;7.00;6.25;;;;;21.64;46.04;100711.66;4941448;28;45444;-55
2022/09/24 02:24:48;;;;;;;;;9.50;8.25;;;;;21.64;46.04;100712.50;4934916;28;45267;-50
2022/09/24 02:27:13;;;;;;;;;8.75;7.00;;;;;21.64;46.21;100704.56;4941182;28;45351;-48
2022/09/24 02:29:39;;;;;;;;;8.75;7.50;;;;;21.64;46.23;100709.03;4929287;28;45305;-47
2022/09/24 02:32:08;;;;;;;;;7.00;6.25;;;;;21.64;46.10;100701.09;4920644;28;45987;-46
2022/09/24 02:34:41;;;;;;;;;8.75;7.50;;;;;21.62;46.03;100702.03;4923075;28;45486;-51
2022/09/24 02:37:11;;;;;;;;;8.25;7.00;;;;;21.64;46.15;100698.47;4921171;28;45525;-47
2022/09/24 02:39:37;;;;;;;;;8.00;7.00;;;;;21.62;46.38;100699.41;4936216;28;46437;-56
2022/09/24 02:42:04;;;;;;;;;8.25;7.25;;;;;21.62;46.08;100696.78;4929926;28;45223;-58
2022/09/24 02:44:35;;;;;;;;;7.25;7.00;;;;;21.61;46.29;100700.34;4932463;28;45290;-56
2022/09/24 02:47:00;;;;;;;;;7.25;6.50;;;;;21.61;46.39;100692.44;4921508;28;45408;-54
2022/09/24 02:49:25;;;;;;;;;5.75;5.75;;;;;21.60;46.20;100690.75;4918808;28;46592;-55
2022/09/24 02:51:51;;;;;;;;;8.25;7.00;;;;;21.61;46.02;100692.44;4920804;28;45394;-53
2022/09/24 02:54:16;;;;;;;;;9.75;7.25;;;;;21.61;45.98;100691.56;4921231;28;45282;-57
2022/09/24 02:56:42;;;;;;;;;6.75;6.25;;;;;21.60;46.00;100688.09;4920630;28;45433;-54
2022/09/24 02:59:08;;;;;;;;;9.50;8.00;;;;;21.60;46.32;100688.09;4920614;28;46285;-57
2022/09/24 03:01:34;;;;;;;;;7.75;7.25;;;;;21.60;45.93;100682.00;4918293;28;45313;-53
2022/09/24 03:04:00;;;;;;;;;6.50;6.50;;;;;21.60;46.30;100674.91;4921356;28;45393;-51
2022/09/24 03:06:25;;;;;;;;;9.25;7.00;;;;;21.59;46.32;100683.78;4923920;28;45389;-58
2022/09/24 03:08:52;;;;;;;;;9.50;8.25;;;;;21.60;45.87;100688.09;4926863;28;45508;-56
2022/09/24 03:11:18;;;;;;;;;7.50;7.50;;;;;21.60;46.11;100682.81;4926442;28;45286;-57
2022/09/24 03:13:43;;;;;;;;;7.50;7.00;;;;;21.60;46.29;100676.72;4926040;28;45424;-58
2022/09/24 03:16:09;;;;;;;;;8.75;7.25;;;;;21.59;46.27;100678.50;4944033;28;45433;-56
2022/09/24 03:18:34;;;;;;;;;7.25;6.00;;;;;21.59;46.21;100675.03;4933392;28;45567;-55
2022/09/24 03:21:09;;;;;;;;;6.75;6.00;;;;;21.59;46.00;100675.84;4921849;28;45559;-58
2022/09/24 03:23:35;;;;;;;;;9.00;6.25;;;;;21.58;45.88;100676.75;4923580;28;45542;-58
2022/09/24 03:26:00;;;;;;;;;7.00;7.00;;;;;21.58;46.17;100670.66;4928495;28;45620;-56
2022/09/24 03:28:26;;;;;;;;;7.50;7.50;;;;;21.58;46.14;100670.66;4933414;28;45456;-54
2022/09/24 03:30:58;;;;;;;;;9.00;7.50;;;;;21.58;46.02;100670.66;4926343;28;45461;-55
2022/09/24 03:33:44;;;;;;;;;8.00;6.50;;;;;21.57;45.80;100669.78;4923203;28;46159;-57
2022/09/24 03:36:14;;;;;;;;;7.00;7.00;;;;;21.57;46.28;100667.16;4923719;28;45328;-52
2022/09/24 03:38:41;;;;;;;;;8.25;8.00;;;;;21.57;45.92;100668.97;4923682;28;46594;-53
2022/09/24 03:41:08;;;;;;;;;8.25;6.00;;;;;21.57;46.06;100669.78;4926138;28;45508;-51
2022/09/24 03:43:34;;;;;;;;;5.00;5.00;;;;;21.57;45.93;100664.53;4929262;28;45314;-52
2022/09/24 03:46:00;;;;;;;;;6.75;6.75;;;;;21.57;46.08;100669.78;4929245;28;46068;-54
2022/09/24 03:48:26;;;;;;;;;6.50;6.00;;;;;21.57;45.88;100659.25;4924380;28;45354;-57
2022/09/24 03:50:53;;;;;;;;;9.75;6.00;;;;;21.56;45.98;100659.34;4929970;28;45191;-50
2022/09/24 03:53:19;;;;;;;;;8.75;7.50;;;;;21.57;46.27;100663.69;4930773;28;45284;-53
2022/09/24 03:55:47;;;;;;;;;9.50;8.00;;;;;21.57;45.99;100661.06;4923944;28;45259;-52
2022/09/24 03:58:14;;;;;;;;;6.75;6.75;;;;;21.57;45.66;100661.06;4921326;28;46938;-55
2022/09/24 04:00:40;;;;;;;;;9.00;7.25;;;;;21.57;45.67;100661.06;4921474;28;45864;-50
2022/09/24 04:03:06;;;;;;;;;8.00;8.00;;;;;21.56;45.67;100654.91;4921805;28;45259;-51
2022/09/24 04:05:32;;;;;;;;;7.50;7.50;;;;;21.56;45.84;100647.00;4923193;28;45254;-47
2022/09/24 04:07:59;;;;;;;;;7.50;6.00;;;;;21.56;45.52;100652.28;4926175;28;46591;-53
2022/09/24 04:10:24;;;;;;;;;9.00;6.25;;;;;21.57;45.75;100655.78;4943509;28;45203;-52
2022/09/24 04:12:51;;;;;;;;;8.00;6.50;;;;;21.56;45.78;100652.28;4932472;28;44710;-50
2022/09/24 04:15:17;;;;;;;;;5.00;5.00;;;;;21.55;45.61;100650.56;4927236;28;45267;-56
2022/09/24 04:17:49;;;;;;;;;7.00;6.00;;;;;21.55;45.67;100647.94;4925827;28;45501;-55
2022/09/24 04:20:14;;;;;;;;;8.00;8.00;;;;;21.54;45.32;100651.56;4930859;28;45748;-56
2022/09/24 04:22:40;;;;;;;;;6.75;5.50;;;;;21.56;45.48;100652.28;4926599;28;45521;-52
2022/09/24 04:25:05;;;;;;;;;6.00;6.00;;;;;21.54;45.27;100648.06;4923204;28;45281;-58
2022/09/24 04:27:31;;;;;;;;;7.00;6.00;;;;;21.55;45.46;100655.03;4936666;28;45503;-58
2022/09/24 04:29:56;;;;;;;;;7.75;5.50;;;;;21.54;45.29;100654.19;4935563;28;44723;-51
2022/09/24 04:32:22;;;;;;;;;7.00;7.00;;;;;21.55;45.89;100653.22;4925354;28;45270;-54
2022/09/24 04:34:47;;;;;;;;;9.50;6.25;;;;;21.54;45.55;100651.56;4921811;28;45597;-55
2022/09/24 04:37:13;;;;;;;;;6.50;5.00;;;;;21.55;45.68;100653.22;4928698;28;46449;-49
2022/09/24 04:39:38;;;;;;;;;6.00;6.00;;;;;21.55;45.47;100650.56;4933996;28;45311;-51
2022/09/24 04:42:03;;;;;;;;;10.50;7.75;;;;;21.56;45.19;100652.28;4938842;28;44771;-50
2022/09/24 04:44:29;;;;;;;;;10.25;7.25;;;;;21.56;45.46;100652.28;4926737;28;45324;-52
2022/09/24 04:46:58;;;;;;;;;6.50;6.50;;;;;21.55;45.25;100649.75;4920688;28;46238;-50
2022/09/24 04:49:24;;;;;;;;;5.75;4.75;;;;;21.56;45.34;100652.28;4921461;28;45972;-58
2022/09/24 04:51:49;;;;;;;;;7.00;6.00;;;;;21.55;45.47;100653.22;4920526;28;54972;-57
2022/09/24 04:54:15;;;;;;;;;6.25;6.25;;;;;21.55;45.28;100649.75;4919291;28;45499;-58
2022/09/24 04:56:40;;;;;;;;;6.00;6.00;;;;;21.55;45.34;100655.84;4924108;28;47082;-55
2022/09/24 04:59:06;;;;;;;;;5.50;5.50;;;;;21.56;45.21;100662.81;4928000;28;45550;-56
2022/09/24 05:01:31;;;;;;;;;9.75;7.25;;;;;21.54;44.97;100662.09;4923717;28;45357;-58
2022/09/24 05:03:56;;;;;;;;;6.00;5.00;;;;;21.55;45.14;100658.50;4927279;28;45260;-57
2022/09/24 05:06:22;;;;;;;;;7.00;5.75;;;;;21.55;45.25;100663.75;4925524;28;46566;-55
2022/09/24 05:08:47;;;;;;;;;10.00;7.00;;;;;21.56;44.99;100657.53;4921453;28;45473;-58
2022/09/24 05:11:13;;;;;;;;;9.50;6.75;;;;;21.54;45.45;100659.47;4920232;28;45377;-58
2022/09/24 05:13:38;;;;;;;;;7.75;7.00;;;;;21.55;44.90;100665.56;4930793;28;45306;-58
2022/09/24 05:16:03;;;;;;;;;8.25;7.25;;;;;21.55;44.95;100666.41;4938664;28;46059;-54
2022/09/24 05:18:29;;;;;;;;;8.00;7.75;;;;;21.54;45.12;100664.72;4920808;28;45406;-47
2022/09/24 05:20:55;;;;;;;;;9.75;6.00;;;;;21.54;45.16;100667.38;4919953;28;45452;-50
2022/09/24 05:23:20;;;;;;;;;7.75;6.50;;;;;21.55;44.82;100669.03;4920752;28;45529;-49
2022/09/24 05:28:31;;;;;;;;;9.00;8.00;;;;;21.55;45.01;100678.75;4926985;28;45835;-50
2022/09/24 05:30:58;;;;;;;;;7.25;6.00;;;;;21.54;44.92;100675.28;4926906;28;45350;-50
2022/09/24 05:33:23;;;;;;;;;6.25;5.50;;;;;21.54;44.87;100682.31;4926758;28;45464;-56
2022/09/24 05:35:56;;;;;;;;;7.00;7.00;;;;;21.54;44.66;100680.56;4923459;28;46062;-56
2022/09/24 05:38:22;;;;;;;;;5.50;5.50;;;;;21.53;44.95;100684.13;4926845;28;45324;-54
2022/09/24 05:40:48;;;;;;;;;3.00;3.00;;;;;21.54;45.08;100685.84;4926093;28;45275;-55
2022/09/24 05:43:14;;;;;;;;;4.50;3.00;;;;;21.54;44.70;100685.84;4921633;28;45625;-57
2022/09/24 05:45:40;;;;;;;;;6.25;6.00;;;;;21.53;44.88;100678.84;4920957;28;46350;-47
2022/09/24 05:48:06;;;;;;;;;7.75;7.75;;;;;21.53;44.98;100678.84;4920350;28;45365;-56
2022/09/24 05:50:33;;;;;;;;;9.50;5.75;;;;;21.53;44.69;100684.13;4927448;28;44869;-57
2022/09/24 05:53:00;;;;;;;;;6.50;5.00;;;;;21.54;44.75;100680.56;4928014;28;45509;-53
2022/09/24 05:55:26;;;;;;;;;8.25;6.25;;;;;21.53;44.83;100689.41;4919775;28;46079;-56
2022/09/24 05:57:52;;;;;;;;;7.00;5.25;;;;;21.53;44.55;100680.63;4922087;28;45880;-53
2022/09/24 06:00:17;;;;;;;;;7.25;5.25;;;;;21.53;44.51;100684.13;4924213;28;45278;-54
2022/09/24 06:02:43;;;;;;;;;7.25;6.25;;;;;21.52;44.81;100685.06;4921778;28;45415;-59
2022/09/24 06:05:09;;;;;;;;;5.00;5.00;;;;;21.53;44.73;100686.78;4920892;28;45536;-55
2022/09/24 06:07:34;;;;;;;;;6.25;6.00;;;;;21.53;44.87;100688.53;4921943;28;45450;-55
2022/09/24 06:10:00;;;;;;;;;7.00;6.25;;;;;21.52;44.81;100692.97;4921911;28;45253;-56
2022/09/24 06:12:25;;;;;;;;;5.00;5.00;;;;;21.53;44.58;100694.69;4926702;28;45165;-57
2022/09/24 06:14:52;;;;;;;;;6.00;5.75;;;;;21.52;44.54;100697.38;4924969;28;45512;-56
2022/09/24 06:17:18;;;;;;;;;8.25;7.25;;;;;21.53;44.56;100699.97;4925167;28;45927;-55
2022/09/24 06:19:45;;;;;;;;;8.75;5.50;;;;;21.53;44.69;100704.38;4922800;28;45323;-58
2022/09/24 06:22:10;;;;;;;;;7.50;4.50;;;;;21.53;44.61;100705.22;4925216;28;45338;-53
2022/09/24 06:24:36;;;;;;;;;6.00;6.00;;;;;21.54;44.76;100706.06;4926748;28;68522;-48
2022/09/24 06:27:01;;;;;;;;;6.50;6.25;;;;;21.54;44.73;100711.34;4918917;28;45211;-56
2022/09/24 06:29:27;;;;;;;;;9.00;5.75;;;;;21.55;44.96;100710.41;4926178;28;45500;-57
2022/09/24 06:31:52;;;;;;;;;10.75;6.00;;;;;21.55;44.95;100713.03;4927924;28;45237;-55
2022/09/24 06:34:18;;;;;;;;;6.00;6.00;;;;;21.54;44.57;100711.34;4923378;28;45350;-56
2022/09/24 06:36:43;;;;;;;;;7.00;6.00;;;;;21.54;44.61;100717.47;4922825;28;44751;-55
2022/09/24 06:39:08;;;;;;;;;3.25;3.00;;;;;21.53;44.60;100715.78;4920325;28;47885;-54
2022/09/24 06:41:34;;;;;;;;;6.00;6.00;;;;;21.51;44.82;100715.03;4921897;28;45527;-56
2022/09/24 06:43:59;;;;;;;;;6.25;6.25;;;;;21.51;44.82;100715.03;4921930;28;46789;-58
2022/09/24 06:46:25;;;;;;;;;6.75;6.25;;;;;21.51;44.82;100720.28;4922011;28;45222;-57
2022/09/24 06:48:50;;;;;;;;;6.75;6.25;;;;;21.50;44.59;100721.22;4922298;28;45211;-57
2022/09/24 06:51:16;;;;;;;;;8.25;6.25;;;;;21.49;44.65;100719.53;4926981;28;45585;-54
2022/09/24 06:53:41;;;;;;;;;7.00;6.00;;;;;21.50;44.84;100721.22;4924032;28;47027;-55
2022/09/24 06:56:07;;;;;;;;;8.25;6.25;;;;;21.51;44.84;100722.06;4925551;28;45414;-56
2022/09/24 06:58:32;;;;;;;;;7.00;7.00;;;;;21.51;44.98;100727.34;4925972;28;50674;-57
2022/09/24 07:01:01;;;;;;;;;5.50;5.00;;;;;21.50;44.83;100723.88;4920502;28;45295;-49
2022/09/24 07:03:28;;;;;;;;;7.00;7.00;;;;;21.50;45.09;100725.66;4918985;28;46563;-45
2022/09/24 07:05:54;;;;;;;;;8.00;5.50;;;;;21.50;44.77;100726.50;4919675;28;45462;-49
2022/09/24 07:08:20;;;;;;;;;9.25;7.00;;;;;21.52;44.91;100729.91;4920822;28;45471;-49
2022/09/24 07:10:51;;;;;;;;;6.75;5.50;;;;;21.54;44.75;100727.16;4932316;28;45501;-45
2022/09/24 07:13:17;;;;;;;;;6.00;6.00;;;;;21.56;45.26;100726.13;4931829;28;46457;-55
2022/09/24 07:15:44;;;;;;;;;6.50;4.50;;;;;21.60;44.89;100727.66;4924121;28;45143;-51
2022/09/24 07:18:11;;;;;;;;;6.50;6.50;;;;;21.64;44.84;100732.75;4918635;28;45389;-45
2022/09/24 07:20:36;;;;;;;;;6.00;5.25;;;;;21.69;45.09;100728.03;4920494;28;45519;-49
2022/09/24 07:23:07;;;;;;;;;8.00;5.25;;;;;21.74;44.75;100734.72;4922733;28;46161;-54
2022/09/24 07:25:32;;;;;;;;;7.50;6.00;;;;;21.79;44.80;100731.78;4942010;28;45456;-53
2022/09/24 07:28:07;;;;;;;;;4.50;4.50;;;;;21.84;44.92;100731.50;4920726;28;45334;-48
2022/09/24 07:30:33;;;;;;;;;8.50;6.00;;;;;21.90;44.86;100739.03;4926958;28;45235;-54
2022/09/24 07:32:59;;;;;;;;;9.00;6.00;;;;;21.95;44.60;100742.22;4927693;28;46386;-54
2022/09/24 07:35:26;;;;;;;;;8.00;6.75;;;;;21.99;44.70;100738.47;4925633;28;45429;-58
2022/09/24 07:38:03;;;;;;;;;6.50;6.00;;;;;22.06;44.51;100752.13;4920000;28;45499;-53
2022/09/24 07:40:30;;;;;;;;;9.75;8.00;;;;;22.11;44.35;100747.38;4920207;28;45596;-55
2022/09/24 07:42:55;;;;;;;;;4.75;4.75;;;;;22.16;44.44;100753.22;4924033;28;45421;-56
2022/09/24 07:45:22;;;;;;;;;8.00;5.50;;;;;22.20;44.39;100748.59;4926684;28;45369;-55
2022/09/24 07:47:55;;;;;;;;;6.25;4.25;;;;;22.24;44.62;100752.75;4922055;28;45356;-54
2022/09/24 07:50:21;;;;;;;;;6.25;5.25;;;;;22.28;44.34;100756.03;4923988;28;45379;-55
2022/09/24 07:52:49;;;;;;;;;7.75;5.75;;;;;22.30;44.31;100752.34;4926421;28;46910;-56
2022/09/24 07:55:15;;;;;;;;;6.75;6.00;;;;;22.33;44.36;100756.56;4925525;28;45763;-51
2022/09/24 07:57:46;;;;;;;;;9.00;6.00;;;;;22.37;44.44;100766.00;4923767;28;45721;-48
2022/09/24 08:00:12;;;;;;;;;8.50;5.00;;;;;22.40;44.14;100763.16;4925902;28;45279;-48
2022/09/24 08:02:37;;;;;;;;;9.00;5.75;;;;;22.43;43.94;100768.28;4923686;28;46391;-53
2022/09/24 08:05:03;;;;;;;;;5.75;5.00;;;;;22.46;44.12;100768.06;4923400;28;47001;-52
2022/09/24 08:07:28;;;;;;;;;7.50;7.00;;;;;22.48;43.96;100766.19;4924552;28;45333;-48
2022/09/24 08:09:53;;;;;;;;;7.00;7.00;;;;;22.50;44.03;100769.56;4925484;28;45363;-51
2022/09/24 08:12:19;;;;;;;;;6.25;6.25;;;;;22.49;44.05;100762.59;4922697;28;46542;-51
2022/09/24 08:14:44;;;;;;;;;9.25;7.75;;;;;22.53;44.18;100779.09;4929128;28;45307;-52
2022/09/24 08:17:10;;;;;;;;;7.75;7.25;;;;;22.54;44.19;100776.34;4929595;28;45204;-49
2022/09/24 08:19:35;;;;;;;;;6.75;4.00;;;;;22.57;44.09;100772.66;4930271;28;45519;-51
2022/09/24 08:22:01;;;;;;;;;7.75;6.50;;;;;22.58;44.29;100771.72;4934077;28;45617;-48
2022/09/24 08:24:27;;;;;;;;;5.50;4.25;;;;;22.62;43.97;100773.19;4928526;28;45350;-49
2022/09/24 08:26:52;;;;;;;;;7.50;4.75;;;;;22.66;43.66;100773.84;4923939;28;45417;-52
2022/09/24 08:29:17;;;;;;;;;8.00;7.00;;;;;22.69;43.47;100771.88;4930882;28;47226;-54
2022/09/24 08:31:43;;;;;;;;;5.50;5.25;;;;;22.72;43.83;100773.47;4931585;28;46203;-52
2022/09/24 08:34:09;;;;;;;;;6.75;5.75;;;;;22.77;43.30;100786.38;4932304;28;45395;-51
2022/09/24 10:14:10;;;;;;;;;4.00;4.00;;;;;22.73;42.85;100808.63;4938809;28;45361;-48
2022/09/24 10:16:48;;;;;;;;;7.25;5.00;;;;;22.72;42.79;100804.28;4941712;28;45593;-49
2022/09/24 10:19:19;;;;;;;;;5.00;4.25;;;;;22.73;42.80;100800.72;4940168;28;44978;-48
2022/09/24 10:21:45;;;;;;;;;4.75;4.50;;;;;22.73;42.40;100803.34;4923655;28;45312;-54
2022/09/24 10:24:21;;;;;;;;;7.00;5.00;;;;;22.72;42.74;100805.16;4921222;28;45326;-54
2022/09/24 10:26:47;;;;;;;;;6.00;5.00;;;;;22.70;42.62;100801.75;4919337;28;46083;-54
2022/09/24 10:32:16;;;;;;;;;4.25;4.00;;;;;22.67;42.53;100804.59;4923357;28;45375;-56
2022/09/24 10:34:42;;;;;;;;;7.00;6.00;;;;;22.66;42.65;100802.91;4921345;28;45299;-56
2022/09/24 10:37:17;;;;;;;;;7.75;5.25;;;;;22.64;42.64;100805.66;4922812;28;45487;-55
2022/09/24 10:39:43;;;;;;;;;6.50;4.25;;;;;22.63;42.62;100803.13;4924120;28;45230;-52
2022/09/24 10:42:23;;;;;;;;;6.00;4.00;;;;;22.62;42.50;100804.06;4924894;28;45292;-56
2022/09/24 10:44:49;;;;;;;;;5.25;4.00;;;;;22.61;42.41;100797.91;4944125;28;45310;-55
2022/09/24 10:47:26;;;;;;;;;6.75;4.25;;;;;22.60;42.55;100803.31;4938517;28;45248;-54
2022/09/24 10:50:04;;;;;;;;;4.25;4.00;;;;;22.60;42.50;100805.94;4937658;28;45406;-56
2022/09/24 10:52:35;;;;;;;;;6.25;6.25;;;;;22.59;42.53;100805.13;4937806;28;45241;-55
2022/09/24 10:55:28;;;;;;;;;6.25;6.00;;;;;22.57;42.53;100803.50;4938195;28;45412;-54
2022/09/24 10:58:32;;;;;;;;;5.50;5.00;;;;;22.57;42.53;100795.56;4928335;28;47209;-56
2022/09/24 11:01:28;;;;;;;;;7.75;5.00;;;;;22.56;42.66;100805.31;4922374;28;45326;-55
2022/09/24 11:04:24;;;;;;;;;5.00;5.00;;;;;22.55;42.28;100799.16;4924651;28;45294;-56
2022/09/24 11:07:17;;;;;;;;;6.00;6.00;;;;;22.55;42.39;100796.53;4925109;28;45483;-54
2022/09/24 11:09:48;;;;;;;;;7.00;6.00;;;;;22.55;42.50;100801.81;4928824;28;47575;-55
2022/09/24 11:12:45;;;;;;;;;6.25;5.00;;;;;22.56;42.34;100807.94;4926559;28;45220;-55
2022/09/24 11:15:52;;;;;;;;;6.00;6.00;;;;;22.53;42.58;100798.44;4930317;28;45342;-54
2022/09/24 11:18:46;;;;;;;;;6.75;5.00;;;;;22.54;42.35;100797.47;4923697;28;46069;-56
2022/09/24 11:21:43;;;;;;;;;5.50;5.50;;;;;22.54;42.36;100807.19;4924890;28;46749;-56
2022/09/24 11:24:20;;;;;;;;;6.50;6.00;;;;;22.52;42.61;100801.16;4924766;28;45945;-54
2022/09/24 11:26:54;;;;;;;;;4.50;4.50;;;;;22.50;42.56;100798.63;4922906;28;45441;-56
2022/09/24 11:30:03;;;;;;;;;6.50;6.00;;;;;22.50;42.50;100796.00;4925091;28;45437;-54
2022/09/24 11:32:28;;;;;;;;;5.00;5.00;;;;;22.50;42.55;100793.34;4923142;28;45718;-56
2022/09/24 11:35:19;;;;;;;;;7.33;6.00;;;;;22.50;42.30;100793.34;4923370;28;45386;-54
2022/09/24 11:37:58;;;;;;;;;5.25;5.00;;;;;22.50;42.38;100795.13;4924972;28;45460;-56
2022/09/24 11:40:39;;;;;;;;;5.75;5.50;;;;;22.50;42.27;100795.13;4925397;28;45366;-57
2022/09/24 11:43:32;;;;;;;;;5.00;4.00;;;;;22.48;42.27;100792.59;4926410;28;45471;-56
2022/09/24 11:46:10;;;;;;;;;6.50;6.50;;;;;22.49;42.51;100791.66;4924392;28;45835;-56
2022/09/24 11:48:42;;;;;;;;;6.00;4.75;;;;;22.48;42.14;100783.84;4926906;28;45351;-52
2022/09/24 11:51:28;;;;;;;;;8.75;6.00;;;;;22.48;42.31;100784.66;4927073;28;45536;-56
2022/09/24 11:54:16;;;;;;;;;7.00;5.25;;;;;22.48;42.26;100778.56;4926467;28;47151;-56
2022/09/24 11:56:50;;;;;;;;;6.00;5.50;;;;;22.48;42.19;100779.38;4932611;28;45240;-55
2022/09/24 11:59:23;;;;;;;;;8.00;6.25;;;;;22.46;42.32;100773.34;4929137;28;45366;-56
2022/09/24 12:01:55;;;;;;;;;6.50;4.50;;;;;22.47;42.13;100774.22;4925950;28;45457;-54
2022/09/24 12:04:35;;;;;;;;;8.75;5.50;;;;;22.47;42.46;100769.75;4930329;28;45872;-52
2022/09/24 12:07:19;;;;;;;;;6.50;5.75;;;;;22.47;42.32;100775.06;4926802;28;45322;-55
2022/09/24 12:09:51;;;;;;;;;7.50;5.00;;;;;22.47;42.26;100771.56;4922753;28;45394;-55
2022/09/24 12:12:25;;;;;;;;;6.00;5.00;;;;;22.46;42.39;100770.72;4924912;28;45424;-56
2022/09/24 12:15:18;;;;;;;;;6.75;6.00;;;;;22.46;42.14;100768.06;4924402;28;48476;-57
2022/09/24 12:18:03;;;;;;;;;8.25;8.25;;;;;22.46;42.07;100768.06;4951710;28;45247;-57
2022/09/24 12:20:30;;;;;;;;;6.00;5.25;;;;;22.47;41.96;100769.75;4938468;28;45237;-57
2022/09/24 12:23:01;;;;;;;;;8.00;7.00;;;;;22.47;42.25;100761.00;4932852;28;45613;-55
2022/09/24 12:25:41;;;;;;;;;6.75;6.50;;;;;22.48;42.34;100763.53;4923104;28;45292;-55
2022/09/24 12:32:53;;;;;;;;;5.25;4.75;;;;;22.48;42.12;100757.44;4921478;28;45982;-55
2022/09/24 12:34:17;;;;;;;;;8.00;8.00;;;;;22.49;42.31;100753.84;4927881;28;45773;-58
2022/09/24 12:36:53;;;;;;;;;5.75;5.00;;;;;22.48;42.39;100760.06;4927610;28;46249;-56
2022/09/24 12:39:23;;;;;;;;;8.75;7.00;;;;;22.49;42.23;100761.75;4932700;28;45193;-55
2022/09/24 12:41:57;;;;;;;;;7.50;6.00;;;;;22.48;42.28;100745.06;4935550;28;44746;-57
2022/09/24 12:44:33;;;;;;;;;8.00;7.00;;;;;22.49;42.21;100746.75;4927010;28;45918;-57
2022/09/24 12:46:59;;;;;;;;;8.25;6.00;;;;;22.50;42.37;100744.94;4920543;28;46842;-54
2022/09/24 12:49:25;;;;;;;;;7.50;5.75;;;;;22.49;42.27;100752.03;4920631;28;45883;-54
2022/09/24 12:52:22;;;;;;;;;6.00;6.00;;;;;22.49;42.12;100744.09;4919844;28;45337;-53
2022/09/24 12:54:55;;;;;;;;;8.25;6.25;;;;;22.50;42.05;100739.66;4923076;28;45404;-56
2022/09/24 12:57:24;;;;;;;;;5.00;5.00;;;;;22.49;42.31;100743.28;4924312;28;46874;-55
2022/09/24 13:00:03;;;;;;;;;7.00;5.25;;;;;22.49;42.21;100738.00;4923825;28;45361;-56
2022/09/24 13:02:46;;;;;;;;;5.75;5.75;;;;;22.49;42.24;100730.91;4922917;28;45168;-55
2022/09/24 13:05:28;;;;;;;;;2.50;2.25;;;;;22.49;42.02;100736.19;4924993;28;45683;-56
2022/09/24 13:08:01;;;;;;;;;4.25;3.25;;;;;22.49;42.57;100741.47;4930624;28;46056;-53
2022/09/24 13:10:29;;;;;;;;;5.75;5.75;;;;;22.48;42.31;100745.06;4928945;28;46380;-56
2022/09/24 13:12:58;;;;;;;;;6.75;6.00;;;;;22.49;42.57;100741.47;4928627;28;45856;-55
2022/09/24 13:15:31;;;;;;;;;6.25;6.25;;;;;22.49;42.38;100740.63;4926069;28;45294;-56
2022/09/24 13:18:05;;;;;;;;;5.50;5.25;;;;;22.49;42.50;100740.63;4919230;28;45604;-57
2022/09/24 13:20:32;;;;;;;;;10.00;7.00;;;;;22.49;42.38;100735.34;4920087;28;45994;-57
2022/09/24 13:23:15;;;;;;;;;8.25;6.25;;;;;22.48;42.20;100734.50;4920968;28;45183;-51
2022/09/24 13:25:40;;;;;;;;;6.00;5.00;;;;;22.48;42.28;100733.66;4919900;28;45579;-51
2022/09/24 13:28:24;;;;;;;;;6.75;6.25;;;;;22.47;42.52;100739.88;4920000;28;46161;-57